createdAt,value
2018-07-30T00:01:52.158Z,3.10
2018-07-30T00:04:20.417Z,3.02
2018-07-30T00:06:48.741Z,2.92
2018-07-30T00:09:16.998Z,2.83
2018-07-30T00:11:45.239Z,2.90
2018-07-30T00:14:13.476Z,3.10
2018-07-30T00:16:41.739Z,3.00
2018-07-30T00:19:10.018Z,2.58
2018-07-30T00:21:38.267Z,3.15
2018-07-30T00:24:06.578Z,2.70
2018-07-30T00:26:34.832Z,2.98
2018-07-30T00:29:03.107Z,2.92
2018-07-30T00:31:31.487Z,3.30
2018-07-30T00:33:59.659Z,3.08
2018-07-30T00:36:27.933Z,3.02
2018-07-30T00:38:56.197Z,2.83
2018-07-30T00:41:24.473Z,3.33
2018-07-30T00:43:52.737Z,2.83
2018-07-30T00:46:20.994Z,3.27
2018-07-30T00:48:49.312Z,3.12
2018-07-30T00:51:17.603Z,3.05
2018-07-30T00:53:45.818Z,3.30
2018-07-30T00:56:14.081Z,3.00
2018-07-30T00:58:42.320Z,3.15
2018-07-30T01:01:10.631Z,3.30
2018-07-30T01:03:38.914Z,2.98
2018-07-30T01:06:07.162Z,3.20
2018-07-30T01:08:35.416Z,3.37
2018-07-30T01:11:03.710Z,2.87
2018-07-30T01:13:31.956Z,2.95
2018-07-30T01:16:00.220Z,3.20
2018-07-30T01:18:28.520Z,2.75
2018-07-30T01:20:56.818Z,3.15
2018-07-30T01:23:25.118Z,3.00
2018-07-30T01:25:53.382Z,3.47
2018-07-30T01:28:21.652Z,2.98
2018-07-30T01:30:49.975Z,3.20
2018-07-30T01:33:18.235Z,3.27
2018-07-30T01:35:46.512Z,2.87
2018-07-30T01:38:14.835Z,3.70
2018-07-30T01:40:43.083Z,2.98
2018-07-30T01:43:11.366Z,3.17
2018-07-30T01:45:39.670Z,2.98
2018-07-30T01:48:08.431Z,2.95
2018-07-30T01:50:36.721Z,3.42
2018-07-30T01:53:05.267Z,3.27
2018-07-30T01:55:33.517Z,3.25
2018-07-30T01:58:01.768Z,3.12
2018-07-30T02:00:30.042Z,3.08
2018-07-30T02:02:58.332Z,2.92
2018-07-30T02:05:26.652Z,3.25
2018-07-30T02:07:54.944Z,2.87
2018-07-30T02:10:24.205Z,3.37
2018-07-30T02:12:52.447Z,2.77
2018-07-30T02:15:20.708Z,3.37
2018-07-30T02:17:48.924Z,2.85
2018-07-30T02:20:17.350Z,2.90
2018-07-30T02:22:45.580Z,3.00
2018-07-30T02:25:13.867Z,3.07
2018-07-30T02:27:42.141Z,3.60
2018-07-30T02:30:11.071Z,3.20
2018-07-30T02:32:39.306Z,3.00
2018-07-30T02:35:08.568Z,2.97
2018-07-30T02:37:36.841Z,3.50
2018-07-30T02:40:05.818Z,3.40
2018-07-30T02:42:34.048Z,3.00
2018-07-30T02:45:02.788Z,2.83
2018-07-30T02:47:31.101Z,3.20
2018-07-30T02:49:59.424Z,3.43
2018-07-30T02:52:27.695Z,2.93
2018-07-30T02:54:56.005Z,3.17
2018-07-30T02:57:24.234Z,3.43
2018-07-30T02:59:52.489Z,2.90
2018-07-30T03:02:20.796Z,3.03
2018-07-30T03:04:49.046Z,3.10
2018-07-30T03:07:17.317Z,3.23
2018-07-30T03:09:45.577Z,3.30
2018-07-30T03:12:13.840Z,3.20
2018-07-30T03:14:42.107Z,3.63
2018-07-30T03:17:10.454Z,3.37
2018-07-30T03:19:39.394Z,3.40
2018-07-30T03:22:07.688Z,3.70
2018-07-30T03:24:35.971Z,3.03
2018-07-30T03:27:03.990Z,2.80
2018-07-30T03:29:32.270Z,3.20
2018-07-30T03:32:00.533Z,3.40
2018-07-30T03:34:29.427Z,3.23
2018-07-30T03:36:57.716Z,3.27
2018-07-30T03:39:25.991Z,3.63
2018-07-30T03:41:54.291Z,3.70
2018-07-30T03:44:22.636Z,3.17
2018-07-30T03:46:50.912Z,3.77
2018-07-30T03:49:19.189Z,3.40
2018-07-30T03:51:47.534Z,3.60
2018-07-30T03:54:15.782Z,2.83
2018-07-30T03:56:44.036Z,3.00
2018-07-30T03:59:12.334Z,3.70
2018-07-30T04:01:40.610Z,3.20
2018-07-30T04:04:08.871Z,3.07
2018-07-30T04:06:37.116Z,3.17
2018-07-30T04:09:06.608Z,4.07
2018-07-30T04:11:34.928Z,3.20
2018-07-30T04:14:03.206Z,3.30
2018-07-30T04:16:35.795Z,3.53
2018-07-30T04:19:04.192Z,3.87
2018-07-30T04:21:32.426Z,3.70
2018-07-30T04:24:00.740Z,3.33
2018-07-30T04:26:28.980Z,3.17
2018-07-30T04:28:57.268Z,3.23
2018-07-30T04:31:25.491Z,3.13
2018-07-30T04:33:53.914Z,3.57
2018-07-30T04:36:22.196Z,3.30
2018-07-30T04:38:50.535Z,3.20
2018-07-30T04:41:18.764Z,4.10
2018-07-30T04:43:47.070Z,3.73
2018-07-30T04:46:15.337Z,3.70
2018-07-30T04:48:43.362Z,3.90
2018-07-30T04:51:11.655Z,3.77
2018-07-30T04:53:39.922Z,3.43
2018-07-30T04:56:08.191Z,3.23
2018-07-30T04:58:36.463Z,3.30
2018-07-30T05:01:04.737Z,3.43
2018-07-30T05:03:33.004Z,3.57
2018-07-30T05:06:01.237Z,3.80
2018-07-30T05:08:29.496Z,3.77
2018-07-30T05:10:57.749Z,3.57
2018-07-30T05:13:26.074Z,3.70
2018-07-30T05:15:54.326Z,3.83
2018-07-30T05:18:22.614Z,3.47
2018-07-30T05:20:50.919Z,3.50
2018-07-30T05:23:19.223Z,3.63
2018-07-30T05:25:47.508Z,4.03
2018-07-30T05:28:16.575Z,3.67
2018-07-30T05:30:44.866Z,3.70
2018-07-30T05:33:13.114Z,3.87
2018-07-30T05:35:41.359Z,3.27
2018-07-30T05:38:09.638Z,4.17
2018-07-30T05:40:37.879Z,3.93
2018-07-30T05:43:06.159Z,3.73
2018-07-30T05:45:34.468Z,3.50
2018-07-30T05:48:02.755Z,3.40
2018-07-30T05:50:31.014Z,3.83
2018-07-30T05:52:59.291Z,3.63
2018-07-30T05:55:27.587Z,3.80
2018-07-30T05:57:55.854Z,3.90
2018-07-30T06:00:24.305Z,3.97
2018-07-30T06:02:53.148Z,3.70
2018-07-30T06:05:21.417Z,3.45
2018-07-30T06:07:49.717Z,3.42
2018-07-30T06:10:17.976Z,3.83
2018-07-30T06:12:46.229Z,3.77
2018-07-30T06:15:14.551Z,3.55
2018-07-30T06:17:42.779Z,3.47
2018-07-30T06:20:11.638Z,3.40
2018-07-30T06:22:40.400Z,3.70
2018-07-30T06:25:08.802Z,3.55
2018-07-30T06:27:37.281Z,3.60
2018-07-30T06:30:06.939Z,3.58
2018-07-30T06:32:34.968Z,3.62
2018-07-30T06:35:03.926Z,3.35
2018-07-30T06:37:32.202Z,3.62
2018-07-30T06:40:01.091Z,3.58
2018-07-30T06:42:29.368Z,3.00
2018-07-30T06:44:57.857Z,3.40
2018-07-30T06:47:26.142Z,3.08
2018-07-30T06:49:54.442Z,3.08
2018-07-30T06:52:22.860Z,3.67
2018-07-30T06:54:51.108Z,3.58
2018-07-30T06:57:19.338Z,3.02
2018-07-30T06:59:47.606Z,3.75
2018-07-30T07:02:15.919Z,3.47
2018-07-30T07:04:44.173Z,3.20
2018-07-30T07:07:12.430Z,3.12
2018-07-30T07:09:40.695Z,3.30
2018-07-30T07:12:08.991Z,3.05
2018-07-30T07:14:37.292Z,3.70
2018-07-30T07:17:08.816Z,3.85
2018-07-30T07:19:37.323Z,7.65
2018-07-30T07:22:05.740Z,5.62
2018-07-30T07:24:33.991Z,3.60
2018-07-30T07:27:02.276Z,3.47
2018-07-30T07:29:30.514Z,2.67
2018-07-30T07:31:58.775Z,3.33
2018-07-30T07:34:27.031Z,3.17
2018-07-30T07:36:55.346Z,3.12
2018-07-30T07:39:23.619Z,3.10
2018-07-30T07:41:51.846Z,3.22
2018-07-30T07:44:19.916Z,3.22
2018-07-30T07:46:48.252Z,3.50
2018-07-30T07:49:16.518Z,3.00
2018-07-30T07:51:44.820Z,3.17
2018-07-30T07:54:13.174Z,3.65
2018-07-30T07:56:41.467Z,3.00
2018-07-30T07:59:09.761Z,2.90
2018-07-30T08:01:38.026Z,3.10
2018-07-30T08:04:06.325Z,3.10
2018-07-30T08:06:34.347Z,3.20
2018-07-30T08:09:02.570Z,3.00
2018-07-30T08:11:30.854Z,2.80
2018-07-30T08:13:59.924Z,3.27
2018-07-30T08:16:28.239Z,3.27
2018-07-30T08:18:56.447Z,3.17
2018-07-30T08:21:24.738Z,2.80
2018-07-30T08:23:53.007Z,3.15
2018-07-30T08:26:21.508Z,3.37
2018-07-30T08:28:49.820Z,2.77
2018-07-30T08:31:18.104Z,3.20
2018-07-30T08:33:46.362Z,3.08
2018-07-30T08:36:14.662Z,3.42
2018-07-30T08:38:42.908Z,2.83
2018-07-30T08:41:10.889Z,2.90
2018-07-30T08:43:38.887Z,2.70
2018-07-30T08:46:07.229Z,2.80
2018-07-30T08:48:35.488Z,2.58
2018-07-30T08:51:03.766Z,3.10
2018-07-30T08:53:32.007Z,2.83
2018-07-30T08:56:00.347Z,2.92
2018-07-30T08:58:28.646Z,2.90
2018-07-30T09:00:56.897Z,3.08
2018-07-30T09:03:25.205Z,2.65
2018-07-30T09:05:53.534Z,2.33
2018-07-30T09:08:21.799Z,2.60
2018-07-30T09:10:50.766Z,2.80
2018-07-30T09:13:19.200Z,2.67
2018-07-30T09:15:47.528Z,3.00
2018-07-30T09:18:15.814Z,3.05
2018-07-30T09:20:44.132Z,2.35
2018-07-30T09:23:12.394Z,2.22
2018-07-30T09:25:40.713Z,2.45
2018-07-30T09:28:08.999Z,2.50
2018-07-30T09:30:37.298Z,2.58
2018-07-30T09:33:05.706Z,3.05
2018-07-30T09:35:33.923Z,2.80
2018-07-30T09:38:02.196Z,2.70
2018-07-30T09:40:30.481Z,2.45
2018-07-30T09:42:59.746Z,2.60
2018-07-30T09:45:28.077Z,2.42
2018-07-30T09:47:56.339Z,2.70
2018-07-30T09:50:24.638Z,3.02
2018-07-30T09:52:52.964Z,2.98
2018-07-30T09:55:21.219Z,2.72
2018-07-30T09:57:49.523Z,2.50
2018-07-30T10:00:22.083Z,2.70
2018-07-30T10:02:50.379Z,3.05
2018-07-30T10:05:18.642Z,2.47
2018-07-30T10:07:46.929Z,2.67
2018-07-30T10:10:15.186Z,2.80
2018-07-30T10:12:43.515Z,2.72
2018-07-30T10:15:11.758Z,2.85
2018-07-30T10:17:40.079Z,2.55
2018-07-30T10:20:08.536Z,2.75
2018-07-30T10:22:36.758Z,3.10
2018-07-30T10:25:05.070Z,2.83
2018-07-30T10:27:33.338Z,3.02
2018-07-30T10:30:01.651Z,2.83
2018-07-30T10:32:30.647Z,3.05
2018-07-30T10:34:58.915Z,2.67
2018-07-30T10:37:27.171Z,3.27
2018-07-30T10:39:55.474Z,2.77
2018-07-30T10:42:23.691Z,2.67
2018-07-30T10:44:51.712Z,2.62
2018-07-30T10:47:20.074Z,2.50
2018-07-30T10:49:48.295Z,3.00
2018-07-30T10:52:17.272Z,2.65
2018-07-30T10:54:45.564Z,2.87
2018-07-30T10:57:13.995Z,2.77
2018-07-30T10:59:42.281Z,2.95
2018-07-30T11:02:10.513Z,3.00
2018-07-30T11:04:41.495Z,3.20
2018-07-30T11:07:09.742Z,2.58
2018-07-30T11:09:38.389Z,2.52
2018-07-30T11:12:06.635Z,3.00
2018-07-30T11:14:34.963Z,2.67
2018-07-30T11:17:03.217Z,2.62
2018-07-30T11:19:31.476Z,2.65
2018-07-30T11:21:59.700Z,2.80
2018-07-30T11:24:28.027Z,2.75
2018-07-30T11:26:56.278Z,3.15
2018-07-30T11:29:24.581Z,2.85
2018-07-30T11:31:52.845Z,2.67
2018-07-30T11:34:21.171Z,2.62
2018-07-30T11:36:49.567Z,2.52
2018-07-30T11:39:17.837Z,2.87
2018-07-30T11:41:45.814Z,2.65
2018-07-30T11:44:14.071Z,2.92
2018-07-30T11:46:42.349Z,2.67
2018-07-30T11:49:10.626Z,2.60
2018-07-30T11:51:38.640Z,2.83
2018-07-30T11:54:06.975Z,3.02
2018-07-30T11:56:35.159Z,2.90
2018-07-30T11:59:03.425Z,2.58
2018-07-30T12:01:31.493Z,2.65
2018-07-30T12:03:59.735Z,2.58
2018-07-30T12:06:28.047Z,2.50
2018-07-30T12:08:56.314Z,2.80
2018-07-30T12:11:24.567Z,2.77
2018-07-30T12:13:52.813Z,2.87
2018-07-30T12:16:21.163Z,2.80
2018-07-30T12:18:49.439Z,2.83
2018-07-30T12:21:17.877Z,2.98
2018-07-30T12:23:46.149Z,2.77
2018-07-30T12:26:14.374Z,3.10
2018-07-30T12:28:42.618Z,3.00
2018-07-30T12:31:10.880Z,3.37
2018-07-30T12:33:39.182Z,3.10
2018-07-30T12:36:07.222Z,3.00
2018-07-30T12:38:35.231Z,3.08
2018-07-30T12:41:03.225Z,2.98
2018-07-30T12:43:31.474Z,2.98
2018-07-30T12:45:59.763Z,2.80
2018-07-30T12:48:28.039Z,2.65
2018-07-30T12:50:56.299Z,2.70
2018-07-30T12:53:24.547Z,2.58
2018-07-30T12:55:52.915Z,2.87
2018-07-30T12:58:21.211Z,2.92
2018-07-30T13:00:49.444Z,2.65
2018-07-30T13:03:17.743Z,2.83
2018-07-30T13:05:45.961Z,2.98
2018-07-30T13:08:14.232Z,2.95
2018-07-30T13:10:42.495Z,3.22
2018-07-30T13:13:10.748Z,3.60
2018-07-30T13:15:39.012Z,2.85
2018-07-30T13:18:07.832Z,2.75
2018-07-30T13:20:36.164Z,2.60
2018-07-30T13:23:04.408Z,3.12
2018-07-30T13:25:32.653Z,3.50
2018-07-30T13:28:00.911Z,3.30
2018-07-30T13:30:29.222Z,2.75
2018-07-30T13:32:57.242Z,3.02
2018-07-30T13:35:25.495Z,2.98
2018-07-30T13:37:53.866Z,2.85
2018-07-30T13:40:22.407Z,3.05
2018-07-30T13:42:50.746Z,3.00
2018-07-30T13:45:19.046Z,2.65
2018-07-30T13:47:47.356Z,2.92
2018-07-30T13:50:15.648Z,3.00
2018-07-30T13:52:43.666Z,2.90
2018-07-30T13:55:11.907Z,3.00
2018-07-30T13:57:40.165Z,3.25
2018-07-30T14:00:09.982Z,3.10
2018-07-30T14:02:37.992Z,3.25
2018-07-30T14:05:06.426Z,3.08
2018-07-30T14:07:34.428Z,3.00
2018-07-30T14:10:02.714Z,2.98
2018-07-30T14:12:30.931Z,3.47
2018-07-30T14:14:59.231Z,3.58
2018-07-30T14:17:27.221Z,2.85
2018-07-30T14:19:55.726Z,3.22
2018-07-30T14:22:24.643Z,2.83
2018-07-30T14:24:53.004Z,2.92
2018-07-30T14:27:21.274Z,3.02
2018-07-30T14:29:49.542Z,2.70
2018-07-30T14:32:17.794Z,2.83
2018-07-30T14:34:46.111Z,2.85
2018-07-30T14:37:14.448Z,2.60
2018-07-30T14:39:42.746Z,2.47
2018-07-30T14:42:11.859Z,3.10
2018-07-30T14:44:40.098Z,2.60
2018-07-30T14:47:08.346Z,3.08
2018-07-30T14:49:36.627Z,3.08
2018-07-30T14:52:04.986Z,2.90
2018-07-30T14:54:33.267Z,3.33
2018-07-30T14:57:07.975Z,3.12
2018-07-30T14:59:36.340Z,3.27
2018-07-30T15:02:04.633Z,3.08
2018-07-30T15:04:32.954Z,2.80
2018-07-30T15:07:01.247Z,3.20
2018-07-30T15:09:29.505Z,2.87
2018-07-30T15:11:57.752Z,3.00
2018-07-30T15:14:26.046Z,3.08
2018-07-30T15:16:54.841Z,3.05
2018-07-30T15:19:23.111Z,2.92
2018-07-30T15:21:51.111Z,2.70
2018-07-30T15:24:19.415Z,2.87
2018-07-30T15:26:47.687Z,3.40
2018-07-30T15:29:15.975Z,3.12
2018-07-30T15:31:44.311Z,3.00
2018-07-30T15:34:12.810Z,2.72
2018-07-30T15:36:41.663Z,3.20
2018-07-30T15:39:10.604Z,2.98
2018-07-30T15:41:38.910Z,3.02
2018-07-30T15:44:07.443Z,3.20
2018-07-30T15:46:36.209Z,3.00
2018-07-30T15:49:04.475Z,2.77
2018-07-30T15:51:32.537Z,3.25
2018-07-30T15:54:00.966Z,2.92
2018-07-30T15:56:29.760Z,2.87
2018-07-30T15:58:58.083Z,2.83
2018-07-30T16:01:26.407Z,3.20
2018-07-30T16:03:54.703Z,2.80
2018-07-30T16:06:23.172Z,3.10
2018-07-30T16:08:51.630Z,2.80
2018-07-30T16:11:19.897Z,2.90
2018-07-30T16:13:48.213Z,2.80
2018-07-30T16:16:16.455Z,2.75
2018-07-30T16:18:44.676Z,2.50
2018-07-30T16:21:13.556Z,2.95
2018-07-30T16:23:41.882Z,3.27
2018-07-30T16:26:10.172Z,2.50
2018-07-30T16:28:38.467Z,3.10
2018-07-30T16:31:06.776Z,3.22
2018-07-30T16:33:35.069Z,3.00
2018-07-30T16:36:03.322Z,2.80
2018-07-30T16:38:31.595Z,2.80
2018-07-30T16:40:59.907Z,2.37
2018-07-30T16:43:28.210Z,2.70
2018-07-30T16:45:56.536Z,2.70
2018-07-30T16:48:24.866Z,2.70
2018-07-30T16:50:53.169Z,2.47
2018-07-30T16:53:21.527Z,2.72
2018-07-30T16:55:50.018Z,2.60
2018-07-30T16:58:18.241Z,2.83
2018-07-30T17:00:46.967Z,2.90
2018-07-30T17:03:15.270Z,3.20
2018-07-30T17:05:43.558Z,4.30
2018-07-30T17:08:11.853Z,2.65
2018-07-30T17:10:40.241Z,2.70
2018-07-30T17:13:08.572Z,2.95
2018-07-30T17:15:36.823Z,2.65
2018-07-30T17:18:05.128Z,2.92
2018-07-30T17:20:33.353Z,2.80
2018-07-30T17:23:01.420Z,3.00
2018-07-30T17:25:29.682Z,2.90
2018-07-30T17:27:57.926Z,2.95
2018-07-30T17:30:26.203Z,3.00
2018-07-30T17:32:54.458Z,2.83
2018-07-30T17:35:28.999Z,3.67
2018-07-30T17:37:57.802Z,2.65
2018-07-30T17:40:26.176Z,3.20
2018-07-30T17:42:54.450Z,2.70
2018-07-30T17:45:22.758Z,3.10
2018-07-30T17:47:51.018Z,2.87
2018-07-30T17:50:19.361Z,3.22
2018-07-30T17:52:47.938Z,2.83
2018-07-30T17:55:16.233Z,3.00
2018-07-30T17:57:44.647Z,2.87
2018-07-30T18:00:12.958Z,2.80
2018-07-30T18:02:41.225Z,2.67
2018-07-30T18:05:09.592Z,2.50
2018-07-30T18:07:37.929Z,2.42
2018-07-30T18:10:06.412Z,2.95
2018-07-30T18:12:34.691Z,2.77
2018-07-30T18:15:03.029Z,2.60
2018-07-30T18:17:31.301Z,2.72
2018-07-30T18:19:59.574Z,3.00
2018-07-30T18:22:27.907Z,2.90
2018-07-30T18:24:56.180Z,2.75
2018-07-30T18:27:24.440Z,2.40
2018-07-30T18:29:52.729Z,2.40
2018-07-30T18:32:21.011Z,2.58
2018-07-30T18:34:49.321Z,3.92
2018-07-30T18:37:17.306Z,14.68
2018-07-30T18:39:45.597Z,6.97
2018-07-30T18:42:13.893Z,4.92
2018-07-30T18:44:42.174Z,2.95
2018-07-30T18:47:10.499Z,2.67
2018-07-30T18:49:38.817Z,3.42
2018-07-30T18:52:07.211Z,5.75
2018-07-30T18:54:35.534Z,11.05
2018-07-30T18:57:03.824Z,6.10
2018-07-30T18:59:32.092Z,3.02
2018-07-30T19:02:00.324Z,3.02
2018-07-30T19:04:28.576Z,3.52
2018-07-30T19:06:56.808Z,2.72
2018-07-30T19:09:25.062Z,3.10
2018-07-30T19:11:53.311Z,2.70
2018-07-30T19:14:21.531Z,2.90
2018-07-30T19:16:52.213Z,2.60
2018-07-30T19:19:20.513Z,3.20
2018-07-30T19:21:49.048Z,3.12
2018-07-30T19:24:17.834Z,2.75
2018-07-30T19:26:45.904Z,3.27
2018-07-30T19:29:14.380Z,4.53
2018-07-30T19:31:42.684Z,4.53
2018-07-30T19:34:10.970Z,4.80
2018-07-30T19:36:40.036Z,4.70
2018-07-30T19:39:10.848Z,4.28
2018-07-30T19:41:39.219Z,3.85
2018-07-30T19:44:08.096Z,3.60
2018-07-30T19:46:36.479Z,3.47
2018-07-30T19:49:05.184Z,3.83
2018-07-30T19:51:34.226Z,3.70
2018-07-30T19:54:02.502Z,4.00
2018-07-30T19:56:30.778Z,4.00
2018-07-30T19:58:59.281Z,3.30
2018-07-30T20:01:27.316Z,3.95
2018-07-30T20:03:55.589Z,3.95
2018-07-30T20:06:23.922Z,4.35
2018-07-30T20:08:52.329Z,4.40
2018-07-30T20:11:20.604Z,4.87
2018-07-30T20:13:48.899Z,6.08
2018-07-30T20:16:17.193Z,5.47
2018-07-30T20:18:45.450Z,4.87
2018-07-30T20:21:13.740Z,4.50
2018-07-30T20:23:42.048Z,4.15
2018-07-30T20:26:10.289Z,3.98
2018-07-30T20:28:38.596Z,3.60
2018-07-30T20:31:07.342Z,4.05
2018-07-30T20:33:35.708Z,4.55
2018-07-30T20:36:03.922Z,4.22
2018-07-30T20:38:32.222Z,4.40
2018-07-30T20:41:00.557Z,4.35
2018-07-30T20:43:28.867Z,4.40
2018-07-30T20:45:57.142Z,4.50
2018-07-30T20:48:25.423Z,4.67
2018-07-30T20:50:53.644Z,4.83
2018-07-30T20:53:21.902Z,4.78
2018-07-30T20:55:50.142Z,4.47
2018-07-30T20:58:18.439Z,4.03
2018-07-30T21:00:46.431Z,4.90
2018-07-30T21:03:14.685Z,3.98
2018-07-30T21:05:43.705Z,4.20
2018-07-30T21:08:13.522Z,4.12
2018-07-30T21:10:42.679Z,3.80
2018-07-30T21:13:10.903Z,4.03
2018-07-30T21:15:39.151Z,4.47
2018-07-30T21:18:07.436Z,3.62
2018-07-30T21:20:35.824Z,4.05
2018-07-30T21:23:04.117Z,4.08
2018-07-30T21:25:32.414Z,4.45
2018-07-30T21:28:00.697Z,3.95
2018-07-30T21:30:29.007Z,4.67
2018-07-30T21:32:57.379Z,4.30
2018-07-30T21:35:25.692Z,4.65
2018-07-30T21:37:53.961Z,4.20
2018-07-30T21:40:22.185Z,4.10
2018-07-30T21:42:50.585Z,4.17
2018-07-30T21:45:18.571Z,4.70
2018-07-30T21:47:46.894Z,4.08
2018-07-30T21:50:15.212Z,4.20
2018-07-30T21:52:43.456Z,4.45
2018-07-30T21:55:11.839Z,5.50
2018-07-30T21:57:40.106Z,4.80
2018-07-30T22:00:12.822Z,4.50
2018-07-30T22:02:41.016Z,4.50
2018-07-30T22:05:12.574Z,4.50
2018-07-30T22:07:40.824Z,4.92
2018-07-30T22:10:09.097Z,5.10
2018-07-30T22:12:37.424Z,4.42
2018-07-30T22:15:05.708Z,5.10
2018-07-30T22:17:33.938Z,4.80
2018-07-30T22:20:02.446Z,5.87
2018-07-30T22:22:30.725Z,5.35
2018-07-30T22:24:59.007Z,5.00
2018-07-30T22:27:27.268Z,5.92
2018-07-30T22:29:55.613Z,4.85
2018-07-30T22:32:23.836Z,4.95
2018-07-30T22:34:52.118Z,4.42
2018-07-30T22:37:20.513Z,5.35
2018-07-30T22:39:48.751Z,6.10
2018-07-30T22:42:17.068Z,5.80
2018-07-30T22:44:45.338Z,5.50
2018-07-30T22:47:13.614Z,5.90
2018-07-30T22:49:41.919Z,5.25
2018-07-30T22:52:10.260Z,5.30
2018-07-30T22:54:38.515Z,4.97
2018-07-30T22:57:06.771Z,5.55
2018-07-30T22:59:35.066Z,5.65
2018-07-30T23:02:03.311Z,5.37
2018-07-30T23:04:31.341Z,5.05
2018-07-30T23:06:59.679Z,5.60
2018-07-30T23:09:27.971Z,5.58
2018-07-30T23:11:56.185Z,5.78
2018-07-30T23:14:24.942Z,5.60
2018-07-30T23:16:53.237Z,5.47
2018-07-30T23:19:21.523Z,5.87
2018-07-30T23:21:49.823Z,5.50
2018-07-30T23:24:17.821Z,5.60
2018-07-30T23:26:46.115Z,5.33
2018-07-30T23:29:14.448Z,5.62
2018-07-30T23:31:42.409Z,5.75
2018-07-30T23:34:10.673Z,5.28
2018-07-30T23:36:38.977Z,4.97
2018-07-30T23:39:09.038Z,5.20
2018-07-30T23:41:37.331Z,5.30
2018-07-30T23:44:05.608Z,5.30
2018-07-30T23:46:33.893Z,5.00
2018-07-30T23:49:02.163Z,5.05
2018-07-30T23:51:30.677Z,5.03
2018-07-30T23:53:58.995Z,5.40
2018-07-30T23:56:27.672Z,5.45
2018-07-30T23:58:55.922Z,4.85
